sensor_id;sensor_type;location;lat;lon;timestamp;temperature;humidity
19586;DHT22;9939;49.246;9.106;2023-05-10T00:00:21;13.20;99.90
19586;DHT22;9939;49.246;9.106;2023-05-10T00:02:50;13.20;99.90
19586;DHT22;9939;49.246;9.106;2023-05-10T00:05:18;13.20;99.90
19586;DHT22;9939;49.246;9.106;2023-05-10T00:07:45;13.20;99.90
19586;DHT22;9939;49.246;9.106;2023-05-10T00:10:12;13.20;99.90
19586;DHT22;9939;49.246;9.106;2023-05-10T00:12:39;13.20;99.90
19586;DHT22;9939;49.246;9.106;2023-05-10T00:15:07;13.20;99.90
19586;DHT22;9939;49.246;9.106;2023-05-10T00:17:34;13.30;99.90
19586;DHT22;9939;49.246;9.106;2023-05-10T00:20:01;13.20;99.90
19586;DHT22;9939;49.246;9.106;2023-05-10T00:22:28;13.10;99.90
19586;DHT22;9939;49.246;9.106;2023-05-10T00:24:55;13.10;99.90
19586;DHT22;9939;49.246;9.106;2023-05-10T00:27:22;13.20;99.90
19586;DHT22;9939;49.246;9.106;2023-05-10T00:29:49;13.10;99.90
19586;DHT22;9939;49.246;9.106;2023-05-10T00:32:16;13.10;99.90
19586;DHT22;9939;49.246;9.106;2023-05-10T00:34:43;13.10;99.90
19586;DHT22;9939;49.246;9.106;2023-05-10T00:37:11;13.10;99.90
19586;DHT22;9939;49.246;9.106;2023-05-10T00:39:38;13.20;99.90
19586;DHT22;9939;49.246;9.106;2023-05-10T00:42:04;13.20;99.90
19586;DHT22;9939;49.246;9.106;2023-05-10T00:44:33;13.00;99.90
19586;DHT22;9939;49.246;9.106;2023-05-10T00:47:00;13.10;99.90
19586;DHT22;9939;49.246;9.106;2023-05-10T00:49:27;13.00;99.90
19586;DHT22;9939;49.246;9.106;2023-05-10T00:51:54;13.10;99.90
19586;DHT22;9939;49.246;9.106;2023-05-10T00:54:22;13.10;99.90
19586;DHT22;9939;49.246;9.106;2023-05-10T00:56:50;13.00;99.90
19586;DHT22;9939;49.246;9.106;2023-05-10T00:59:18;13.00;99.90
19586;DHT22;9939;49.246;9.106;2023-05-10T01:01:45;13.00;99.90
19586;DHT22;9939;49.246;9.106;2023-05-10T01:04:13;12.90;99.90
19586;DHT22;9939;49.246;9.106;2023-05-10T01:06:41;12.90;99.90
19586;DHT22;9939;49.246;9.106;2023-05-10T01:09:08;12.90;99.90
19586;DHT22;9939;49.246;9.106;2023-05-10T01:11:36;12.90;99.90
19586;DHT22;9939;49.246;9.106;2023-05-10T01:14:03;12.90;99.90
19586;DHT22;9939;49.246;9.106;2023-05-10T01:16:33;12.90;99.90
19586;DHT22;9939;49.246;9.106;2023-05-10T01:19:03;12.90;99.90
19586;DHT22;9939;49.246;9.106;2023-05-10T01:21:33;12.80;99.90
19586;DHT22;9939;49.246;9.106;2023-05-10T01:27:07;12.90;99.90
19586;DHT22;9939;49.246;9.106;2023-05-10T01:30:00;12.80;99.90
19586;DHT22;9939;49.246;9.106;2023-05-10T01:32:50;12.90;99.90
19586;DHT22;9939;49.246;9.106;2023-05-10T01:35:25;13.00;99.90
19586;DHT22;9939;49.246;9.106;2023-05-10T01:40:47;12.90;99.90
19586;DHT22;9939;49.246;9.106;2023-05-10T01:43:19;12.90;99.90
19586;DHT22;9939;49.246;9.106;2023-05-10T01:48:47;12.90;99.90
19586;DHT22;9939;49.246;9.106;2023-05-10T01:51:15;13.00;99.90
19586;DHT22;9939;49.246;9.106;2023-05-10T01:53:44;12.90;99.90
19586;DHT22;9939;49.246;9.106;2023-05-10T01:56:12;12.80;99.90
19586;DHT22;9939;49.246;9.106;2023-05-10T01:58:40;12.90;99.90
19586;DHT22;9939;49.246;9.106;2023-05-10T02:01:09;12.90;99.90
19586;DHT22;9939;49.246;9.106;2023-05-10T02:03:36;13.00;99.90
19586;DHT22;9939;49.246;9.106;2023-05-10T02:06:05;12.90;99.90
19586;DHT22;9939;49.246;9.106;2023-05-10T02:08:32;12.80;99.90
19586;DHT22;9939;49.246;9.106;2023-05-10T02:11:02;13.00;99.90
19586;DHT22;9939;49.246;9.106;2023-05-10T02:13:31;12.90;99.90
19586;DHT22;9939;49.246;9.106;2023-05-10T02:15:59;12.90;99.90
19586;DHT22;9939;49.246;9.106;2023-05-10T02:18:26;12.90;99.90
19586;DHT22;9939;49.246;9.106;2023-05-10T02:20:54;12.80;99.90
19586;DHT22;9939;49.246;9.106;2023-05-10T02:23:22;12.80;99.90
19586;DHT22;9939;49.246;9.106;2023-05-10T02:25:49;13.00;99.90
19586;DHT22;9939;49.246;9.106;2023-05-10T02:28:21;13.00;99.90
19586;DHT22;9939;49.246;9.106;2023-05-10T02:30:48;12.90;99.90
19586;DHT22;9939;49.246;9.106;2023-05-10T02:33:16;12.90;99.90
19586;DHT22;9939;49.246;9.106;2023-05-10T02:35:45;13.00;99.90
19586;DHT22;9939;49.246;9.106;2023-05-10T02:38:12;12.90;99.90
19586;DHT22;9939;49.246;9.106;2023-05-10T02:40:40;12.80;99.90
19586;DHT22;9939;49.246;9.106;2023-05-10T02:43:09;12.80;99.90
19586;DHT22;9939;49.246;9.106;2023-05-10T02:45:38;12.70;99.90
19586;DHT22;9939;49.246;9.106;2023-05-10T02:48:08;12.80;99.90
19586;DHT22;9939;49.246;9.106;2023-05-10T02:50:36;12.80;99.90
19586;DHT22;9939;49.246;9.106;2023-05-10T02:53:08;12.70;99.90
19586;DHT22;9939;49.246;9.106;2023-05-10T02:55:36;12.80;99.90
19586;DHT22;9939;49.246;9.106;2023-05-10T02:58:04;12.70;99.90
19586;DHT22;9939;49.246;9.106;2023-05-10T03:00:32;12.60;99.90
19586;DHT22;9939;49.246;9.106;2023-05-10T03:02:59;12.60;99.90
19586;DHT22;9939;49.246;9.106;2023-05-10T03:05:27;12.60;99.90
19586;DHT22;9939;49.246;9.106;2023-05-10T03:07:57;12.60;99.90
19586;DHT22;9939;49.246;9.106;2023-05-10T03:10:26;12.70;99.90
19586;DHT22;9939;49.246;9.106;2023-05-10T03:18:04;12.70;99.90
19586;DHT22;9939;49.246;9.106;2023-05-10T03:20:36;12.80;99.90
19586;DHT22;9939;49.246;9.106;2023-05-10T03:23:13;12.80;99.90
19586;DHT22;9939;49.246;9.106;2023-05-10T03:25:44;12.80;99.90
19586;DHT22;9939;49.246;9.106;2023-05-10T03:28:14;12.80;99.90
19586;DHT22;9939;49.246;9.106;2023-05-10T03:30:41;12.90;99.90
19586;DHT22;9939;49.246;9.106;2023-05-10T03:33:11;13.00;99.90
19586;DHT22;9939;49.246;9.106;2023-05-10T03:35:42;13.10;99.90
19586;DHT22;9939;49.246;9.106;2023-05-10T03:38:11;13.00;99.90
19586;DHT22;9939;49.246;9.106;2023-05-10T03:40:38;13.00;99.90
19586;DHT22;9939;49.246;9.106;2023-05-10T03:43:06;13.00;99.90
19586;DHT22;9939;49.246;9.106;2023-05-10T03:45:33;13.00;99.90
19586;DHT22;9939;49.246;9.106;2023-05-10T03:48:00;13.10;99.90
19586;DHT22;9939;49.246;9.106;2023-05-10T03:50:27;13.10;99.90
19586;DHT22;9939;49.246;9.106;2023-05-10T03:52:55;13.20;99.90
19586;DHT22;9939;49.246;9.106;2023-05-10T03:55:22;13.10;99.90
19586;DHT22;9939;49.246;9.106;2023-05-10T03:57:49;13.10;99.90
19586;DHT22;9939;49.246;9.106;2023-05-10T04:00:16;13.10;99.90
19586;DHT22;9939;49.246;9.106;2023-05-10T04:02:47;13.10;99.90
19586;DHT22;9939;49.246;9.106;2023-05-10T04:05:17;13.10;99.90
19586;DHT22;9939;49.246;9.106;2023-05-10T04:07:45;13.10;99.90
19586;DHT22;9939;49.246;9.106;2023-05-10T04:10:12;13.10;99.90
19586;DHT22;9939;49.246;9.106;2023-05-10T04:12:39;13.10;99.90
19586;DHT22;9939;49.246;9.106;2023-05-10T04:15:06;13.10;99.90
19586;DHT22;9939;49.246;9.106;2023-05-10T04:17:33;13.00;99.90
19586;DHT22;9939;49.246;9.106;2023-05-10T04:20:00;13.00;99.90
19586;DHT22;9939;49.246;9.106;2023-05-10T04:22:27;12.40;99.90
19586;DHT22;9939;49.246;9.106;2023-05-10T04:24:55;13.10;99.90
19586;DHT22;9939;49.246;9.106;2023-05-10T04:27:22;13.10;99.90
19586;DHT22;9939;49.246;9.106;2023-05-10T04:29:49;13.20;99.90
19586;DHT22;9939;49.246;9.106;2023-05-10T04:32:17;13.20;99.90
19586;DHT22;9939;49.246;9.106;2023-05-10T04:34:44;13.20;99.90
19586;DHT22;9939;49.246;9.106;2023-05-10T04:37:11;13.20;99.90
19586;DHT22;9939;49.246;9.106;2023-05-10T04:39:38;13.30;99.90
19586;DHT22;9939;49.246;9.106;2023-05-10T04:42:07;13.40;99.90
19586;DHT22;9939;49.246;9.106;2023-05-10T04:44:35;13.30;99.90
19586;DHT22;9939;49.246;9.106;2023-05-10T04:47:02;13.40;99.90
19586;DHT22;9939;49.246;9.106;2023-05-10T04:49:29;13.40;99.90
19586;DHT22;9939;49.246;9.106;2023-05-10T04:51:56;13.40;99.90
19586;DHT22;9939;49.246;9.106;2023-05-10T04:54:23;13.50;99.90
19586;DHT22;9939;49.246;9.106;2023-05-10T04:56:50;13.60;99.90
19586;DHT22;9939;49.246;9.106;2023-05-10T04:59:17;13.60;99.90
19586;DHT22;9939;49.246;9.106;2023-05-10T05:01:44;13.60;99.90
19586;DHT22;9939;49.246;9.106;2023-05-10T05:04:12;13.70;99.90
19586;DHT22;9939;49.246;9.106;2023-05-10T05:06:38;13.70;99.90
19586;DHT22;9939;49.246;9.106;2023-05-10T05:09:05;13.70;99.90
19586;DHT22;9939;49.246;9.106;2023-05-10T05:11:32;13.80;99.90
19586;DHT22;9939;49.246;9.106;2023-05-10T05:13:59;13.80;99.90
19586;DHT22;9939;49.246;9.106;2023-05-10T05:16:26;13.80;99.90
19586;DHT22;9939;49.246;9.106;2023-05-10T05:18:53;14.00;99.90
19586;DHT22;9939;49.246;9.106;2023-05-10T05:21:20;14.00;99.90
19586;DHT22;9939;49.246;9.106;2023-05-10T05:23:48;14.00;99.90
19586;DHT22;9939;49.246;9.106;2023-05-10T05:26:15;14.00;99.90
19586;DHT22;9939;49.246;9.106;2023-05-10T05:28:42;14.10;99.90
19586;DHT22;9939;49.246;9.106;2023-05-10T05:31:09;14.10;99.90
19586;DHT22;9939;49.246;9.106;2023-05-10T05:33:36;13.90;99.90
19586;DHT22;9939;49.246;9.106;2023-05-10T05:36:04;14.00;99.90
19586;DHT22;9939;49.246;9.106;2023-05-10T05:38:32;14.10;99.90
19586;DHT22;9939;49.246;9.106;2023-05-10T05:40:59;14.40;99.90
19586;DHT22;9939;49.246;9.106;2023-05-10T05:43:26;14.40;99.90
19586;DHT22;9939;49.246;9.106;2023-05-10T05:45:53;14.60;99.90
19586;DHT22;9939;49.246;9.106;2023-05-10T05:48:20;14.80;99.90
19586;DHT22;9939;49.246;9.106;2023-05-10T05:50:47;14.90;99.90
19586;DHT22;9939;49.246;9.106;2023-05-10T05:53:14;15.00;99.90
19586;DHT22;9939;49.246;9.106;2023-05-10T05:55:55;14.70;99.90
19586;DHT22;9939;49.246;9.106;2023-05-10T05:58:23;14.70;99.90
19586;DHT22;9939;49.246;9.106;2023-05-10T06:00:50;14.70;99.90
19586;DHT22;9939;49.246;9.106;2023-05-10T06:03:18;14.80;99.90
19586;DHT22;9939;49.246;9.106;2023-05-10T06:05:46;14.60;99.90
19586;DHT22;9939;49.246;9.106;2023-05-10T06:08:13;14.70;99.90
19586;DHT22;9939;49.246;9.106;2023-05-10T06:10:40;14.80;99.90
19586;DHT22;9939;49.246;9.106;2023-05-10T06:13:07;14.80;99.90
19586;DHT22;9939;49.246;9.106;2023-05-10T06:15:34;14.90;99.90
19586;DHT22;9939;49.246;9.106;2023-05-10T06:18:01;14.80;99.90
19586;DHT22;9939;49.246;9.106;2023-05-10T06:20:28;14.80;99.90
19586;DHT22;9939;49.246;9.106;2023-05-10T06:22:55;14.90;99.90
19586;DHT22;9939;49.246;9.106;2023-05-10T06:25:22;15.10;99.90
19586;DHT22;9939;49.246;9.106;2023-05-10T06:27:49;15.10;99.90
19586;DHT22;9939;49.246;9.106;2023-05-10T06:30:19;15.10;99.90
19586;DHT22;9939;49.246;9.106;2023-05-10T06:32:47;15.20;99.90
19586;DHT22;9939;49.246;9.106;2023-05-10T06:35:13;15.10;99.90
19586;DHT22;9939;49.246;9.106;2023-05-10T06:37:41;15.10;99.90
19586;DHT22;9939;49.246;9.106;2023-05-10T06:40:08;15.10;99.90
19586;DHT22;9939;49.246;9.106;2023-05-10T06:42:36;15.20;99.90
19586;DHT22;9939;49.246;9.106;2023-05-10T06:45:03;15.30;99.90
19586;DHT22;9939;49.246;9.106;2023-05-10T06:47:30;15.20;99.90
19586;DHT22;9939;49.246;9.106;2023-05-10T06:49:57;15.00;99.90
19586;DHT22;9939;49.246;9.106;2023-05-10T06:52:24;14.70;99.90
19586;DHT22;9939;49.246;9.106;2023-05-10T06:54:51;14.60;99.90
19586;DHT22;9939;49.246;9.106;2023-05-10T06:57:18;14.80;99.90
19586;DHT22;9939;49.246;9.106;2023-05-10T06:59:58;14.90;99.90
19586;DHT22;9939;49.246;9.106;2023-05-10T07:02:25;14.90;99.90
19586;DHT22;9939;49.246;9.106;2023-05-10T07:04:53;14.80;99.90
19586;DHT22;9939;49.246;9.106;2023-05-10T07:07:20;14.60;99.90
19586;DHT22;9939;49.246;9.106;2023-05-10T07:09:47;14.70;99.90
19586;DHT22;9939;49.246;9.106;2023-05-10T07:12:14;14.60;99.90
19586;DHT22;9939;49.246;9.106;2023-05-10T07:14:41;14.80;99.90
19586;DHT22;9939;49.246;9.106;2023-05-10T07:17:08;15.10;99.90
19586;DHT22;9939;49.246;9.106;2023-05-10T07:19:35;15.10;99.90
19586;DHT22;9939;49.246;9.106;2023-05-10T07:22:03;15.60;99.90
19586;DHT22;9939;49.246;9.106;2023-05-10T07:24:29;15.60;99.90
19586;DHT22;9939;49.246;9.106;2023-05-10T07:26:57;15.50;99.90
19586;DHT22;9939;49.246;9.106;2023-05-10T07:29:24;15.40;99.90
19586;DHT22;9939;49.246;9.106;2023-05-10T07:31:51;15.50;99.90
19586;DHT22;9939;49.246;9.106;2023-05-10T07:34:18;15.50;99.90
19586;DHT22;9939;49.246;9.106;2023-05-10T07:36:45;15.60;99.90
19586;DHT22;9939;49.246;9.106;2023-05-10T07:39:12;15.40;99.90
19586;DHT22;9939;49.246;9.106;2023-05-10T07:41:52;15.20;99.90
19586;DHT22;9939;49.246;9.106;2023-05-10T07:44:18;14.90;99.90
19586;DHT22;9939;49.246;9.106;2023-05-10T07:46:47;14.70;99.90
19586;DHT22;9939;49.246;9.106;2023-05-10T07:49:14;14.80;99.90
19586;DHT22;9939;49.246;9.106;2023-05-10T07:51:41;15.10;99.90
19586;DHT22;9939;49.246;9.106;2023-05-10T07:54:09;15.10;99.90
19586;DHT22;9939;49.246;9.106;2023-05-10T07:56:36;14.80;99.90
19586;DHT22;9939;49.246;9.106;2023-05-10T07:59:03;14.70;99.90
19586;DHT22;9939;49.246;9.106;2023-05-10T08:01:32;15.20;99.90
19586;DHT22;9939;49.246;9.106;2023-05-10T08:03:59;15.60;99.90
19586;DHT22;9939;49.246;9.106;2023-05-10T08:06:26;15.80;99.90
19586;DHT22;9939;49.246;9.106;2023-05-10T08:08:54;16.30;99.90
19586;DHT22;9939;49.246;9.106;2023-05-10T08:11:22;16.50;99.90
19586;DHT22;9939;49.246;9.106;2023-05-10T08:13:50;16.80;99.90
19586;DHT22;9939;49.246;9.106;2023-05-10T08:16:17;16.80;99.90
19586;DHT22;9939;49.246;9.106;2023-05-10T08:18:44;16.90;99.90
19586;DHT22;9939;49.246;9.106;2023-05-10T08:21:12;17.00;99.90
19586;DHT22;9939;49.246;9.106;2023-05-10T08:23:40;17.30;99.90
19586;DHT22;9939;49.246;9.106;2023-05-10T08:26:07;17.10;99.90
19586;DHT22;9939;49.246;9.106;2023-05-10T08:28:34;17.00;99.90
19586;DHT22;9939;49.246;9.106;2023-05-10T08:31:01;17.10;99.90
19586;DHT22;9939;49.246;9.106;2023-05-10T08:33:28;17.40;99.90
19586;DHT22;9939;49.246;9.106;2023-05-10T08:35:55;17.60;99.90
19586;DHT22;9939;49.246;9.106;2023-05-10T08:38:22;17.80;99.90
19586;DHT22;9939;49.246;9.106;2023-05-10T08:40:49;17.80;99.90
19586;DHT22;9939;49.246;9.106;2023-05-10T08:43:17;17.70;99.90
19586;DHT22;9939;49.246;9.106;2023-05-10T08:45:44;17.50;99.90
19586;DHT22;9939;49.246;9.106;2023-05-10T08:48:14;17.50;99.90
19586;DHT22;9939;49.246;9.106;2023-05-10T08:50:42;17.60;99.90
19586;DHT22;9939;49.246;9.106;2023-05-10T08:53:10;17.40;99.90
19586;DHT22;9939;49.246;9.106;2023-05-10T08:55:37;17.50;99.90
19586;DHT22;9939;49.246;9.106;2023-05-10T08:58:06;17.70;99.90
19586;DHT22;9939;49.246;9.106;2023-05-10T09:00:33;17.70;99.90
19586;DHT22;9939;49.246;9.106;2023-05-10T09:03:00;17.80;99.90
19586;DHT22;9939;49.246;9.106;2023-05-10T09:05:27;18.00;99.90
19586;DHT22;9939;49.246;9.106;2023-05-10T09:07:54;18.30;99.90
19586;DHT22;9939;49.246;9.106;2023-05-10T09:10:21;18.70;99.90
19586;DHT22;9939;49.246;9.106;2023-05-10T09:12:50;18.70;99.90
19586;DHT22;9939;49.246;9.106;2023-05-10T09:15:17;18.90;99.90
19586;DHT22;9939;49.246;9.106;2023-05-10T09:17:46;18.80;99.90
19586;DHT22;9939;49.246;9.106;2023-05-10T09:20:13;18.70;99.90
19586;DHT22;9939;49.246;9.106;2023-05-10T09:22:40;18.80;99.90
19586;DHT22;9939;49.246;9.106;2023-05-10T09:25:11;18.40;99.90
19586;DHT22;9939;49.246;9.106;2023-05-10T09:27:40;18.50;99.90
19586;DHT22;9939;49.246;9.106;2023-05-10T09:30:07;18.40;99.90
19586;DHT22;9939;49.246;9.106;2023-05-10T09:32:38;18.40;99.90
19586;DHT22;9939;49.246;9.106;2023-05-10T09:35:09;18.50;99.90
19586;DHT22;9939;49.246;9.106;2023-05-10T09:37:38;18.70;99.90
19586;DHT22;9939;49.246;9.106;2023-05-10T09:40:08;18.70;99.90
19586;DHT22;9939;49.246;9.106;2023-05-10T09:42:37;19.40;99.90
19586;DHT22;9939;49.246;9.106;2023-05-10T09:45:04;19.50;99.90
19586;DHT22;9939;49.246;9.106;2023-05-10T09:47:32;19.90;99.90
19586;DHT22;9939;49.246;9.106;2023-05-10T09:50:00;20.30;99.90
19586;DHT22;9939;49.246;9.106;2023-05-10T09:52:30;19.50;99.90
19586;DHT22;9939;49.246;9.106;2023-05-10T09:54:58;19.40;99.90
19586;DHT22;9939;49.246;9.106;2023-05-10T09:57:24;19.50;99.90
19586;DHT22;9939;49.246;9.106;2023-05-10T09:59:52;19.80;99.90
19586;DHT22;9939;49.246;9.106;2023-05-10T10:02:22;20.10;99.90
19586;DHT22;9939;49.246;9.106;2023-05-10T10:04:54;20.50;99.90
19586;DHT22;9939;49.246;9.106;2023-05-10T10:07:22;21.30;99.90
19586;DHT22;9939;49.246;9.106;2023-05-10T10:09:50;22.00;99.90
19586;DHT22;9939;49.246;9.106;2023-05-10T10:12:17;22.80;99.90
19586;DHT22;9939;49.246;9.106;2023-05-10T10:14:45;22.80;99.90
19586;DHT22;9939;49.246;9.106;2023-05-10T10:17:12;22.40;99.90
19586;DHT22;9939;49.246;9.106;2023-05-10T10:19:39;21.30;99.90
19586;DHT22;9939;49.246;9.106;2023-05-10T10:22:06;20.40;99.90
19586;DHT22;9939;49.246;9.106;2023-05-10T10:24:33;19.80;99.90
19586;DHT22;9939;49.246;9.106;2023-05-10T10:27:04;19.70;99.90
19586;DHT22;9939;49.246;9.106;2023-05-10T10:29:39;19.80;99.90
19586;DHT22;9939;49.246;9.106;2023-05-10T10:34:38;21.50;99.90
19586;DHT22;9939;49.246;9.106;2023-05-10T10:37:06;21.90;99.90
19586;DHT22;9939;49.246;9.106;2023-05-10T10:39:33;21.80;99.90
19586;DHT22;9939;49.246;9.106;2023-05-10T10:42:03;21.10;99.90
19586;DHT22;9939;49.246;9.106;2023-05-10T10:49:31;21.20;99.90
19586;DHT22;9939;49.246;9.106;2023-05-10T10:57:24;19.50;99.90
19586;DHT22;9939;49.246;9.106;2023-05-10T11:05:25;20.20;99.90
19586;DHT22;9939;49.246;9.106;2023-05-10T11:07:56;20.40;99.90
19586;DHT22;9939;49.246;9.106;2023-05-10T11:10:24;20.30;99.90
19586;DHT22;9939;49.246;9.106;2023-05-10T11:13:01;20.60;99.90
19586;DHT22;9939;49.246;9.106;2023-05-10T11:15:33;20.20;99.90
19586;DHT22;9939;49.246;9.106;2023-05-10T11:20:50;17.60;99.90
19586;DHT22;9939;49.246;9.106;2023-05-10T11:23:18;17.10;99.90
19586;DHT22;9939;49.246;9.106;2023-05-10T11:25:46;16.50;99.90
19586;DHT22;9939;49.246;9.106;2023-05-10T11:28:14;16.20;99.90
19586;DHT22;9939;49.246;9.106;2023-05-10T11:30:41;15.90;99.90
19586;DHT22;9939;49.246;9.106;2023-05-10T11:33:14;16.00;99.90
19586;DHT22;9939;49.246;9.106;2023-05-10T11:35:41;16.20;99.90
19586;DHT22;9939;49.246;9.106;2023-05-10T11:38:09;16.40;99.90
19586;DHT22;9939;49.246;9.106;2023-05-10T11:40:37;16.30;99.90
19586;DHT22;9939;49.246;9.106;2023-05-10T11:43:04;16.10;99.90
19586;DHT22;9939;49.246;9.106;2023-05-10T11:45:32;16.40;99.90
19586;DHT22;9939;49.246;9.106;2023-05-10T11:47:59;16.70;99.90
19586;DHT22;9939;49.246;9.106;2023-05-10T11:50:27;17.00;99.90
19586;DHT22;9939;49.246;9.106;2023-05-10T11:52:57;17.00;99.90
19586;DHT22;9939;49.246;9.106;2023-05-10T11:55:25;17.20;99.90
19586;DHT22;9939;49.246;9.106;2023-05-10T11:57:52;17.00;99.90
19586;DHT22;9939;49.246;9.106;2023-05-10T12:00:19;16.90;99.90
19586;DHT22;9939;49.246;9.106;2023-05-10T12:02:47;17.10;99.90
19586;DHT22;9939;49.246;9.106;2023-05-10T12:05:14;17.30;99.90
19586;DHT22;9939;49.246;9.106;2023-05-10T12:07:41;17.50;99.90
19586;DHT22;9939;49.246;9.106;2023-05-10T12:10:10;17.80;99.90
19586;DHT22;9939;49.246;9.106;2023-05-10T12:12:41;18.20;99.90
19586;DHT22;9939;49.246;9.106;2023-05-10T12:15:12;18.50;99.90
19586;DHT22;9939;49.246;9.106;2023-05-10T12:17:39;18.70;99.90
19586;DHT22;9939;49.246;9.106;2023-05-10T12:20:12;18.90;99.90
19586;DHT22;9939;49.246;9.106;2023-05-10T12:23:00;18.70;99.90
19586;DHT22;9939;49.246;9.106;2023-05-10T12:25:30;19.10;99.90
19586;DHT22;9939;49.246;9.106;2023-05-10T12:27:58;18.50;99.90
19586;DHT22;9939;49.246;9.106;2023-05-10T12:30:28;17.80;99.90
19586;DHT22;9939;49.246;9.106;2023-05-10T12:33:00;17.10;99.90
19586;DHT22;9939;49.246;9.106;2023-05-10T12:35:29;16.90;99.90
19586;DHT22;9939;49.246;9.106;2023-05-10T12:37:57;16.60;99.90
19586;DHT22;9939;49.246;9.106;2023-05-10T12:40:24;16.60;99.90
19586;DHT22;9939;49.246;9.106;2023-05-10T12:42:51;16.60;99.90
19586;DHT22;9939;49.246;9.106;2023-05-10T12:45:18;16.70;99.90
19586;DHT22;9939;49.246;9.106;2023-05-10T12:47:45;17.10;99.90
19586;DHT22;9939;49.246;9.106;2023-05-10T12:50:13;17.40;99.90
19586;DHT22;9939;49.246;9.106;2023-05-10T12:52:40;17.60;99.90
19586;DHT22;9939;49.246;9.106;2023-05-10T12:55:07;18.30;99.90
19586;DHT22;9939;49.246;9.106;2023-05-10T12:57:34;18.80;99.90
19586;DHT22;9939;49.246;9.106;2023-05-10T13:00:01;19.40;99.90
19586;DHT22;9939;49.246;9.106;2023-05-10T13:02:29;20.10;99.90
19586;DHT22;9939;49.246;9.106;2023-05-10T13:04:56;20.80;99.90
19586;DHT22;9939;49.246;9.106;2023-05-10T13:07:22;21.20;99.90
19586;DHT22;9939;49.246;9.106;2023-05-10T13:09:49;21.40;99.90
19586;DHT22;9939;49.246;9.106;2023-05-10T13:12:16;21.70;99.90
19586;DHT22;9939;49.246;9.106;2023-05-10T13:14:43;22.10;99.90
19586;DHT22;9939;49.246;9.106;2023-05-10T13:17:10;23.10;99.90
19586;DHT22;9939;49.246;9.106;2023-05-10T13:19:37;23.40;99.90
19586;DHT22;9939;49.246;9.106;2023-05-10T13:22:04;22.60;99.90
19586;DHT22;9939;49.246;9.106;2023-05-10T13:24:31;21.90;99.90
19586;DHT22;9939;49.246;9.106;2023-05-10T13:26:58;21.10;99.90
19586;DHT22;9939;49.246;9.106;2023-05-10T13:29:25;20.90;99.90
19586;DHT22;9939;49.246;9.106;2023-05-10T13:31:52;20.20;99.90
19586;DHT22;9939;49.246;9.106;2023-05-10T13:34:20;19.80;99.90
19586;DHT22;9939;49.246;9.106;2023-05-10T13:36:47;19.60;99.90
19586;DHT22;9939;49.246;9.106;2023-05-10T13:39:14;19.20;99.90
19586;DHT22;9939;49.246;9.106;2023-05-10T13:41:41;19.30;99.90
19586;DHT22;9939;49.246;9.106;2023-05-10T13:44:08;19.40;99.90
19586;DHT22;9939;49.246;9.106;2023-05-10T13:46:35;19.80;99.90
19586;DHT22;9939;49.246;9.106;2023-05-10T13:49:02;20.00;99.90
19586;DHT22;9939;49.246;9.106;2023-05-10T13:51:29;20.70;99.90
19586;DHT22;9939;49.246;9.106;2023-05-10T13:53:58;20.90;99.90
19586;DHT22;9939;49.246;9.106;2023-05-10T13:56:25;21.20;99.90
19586;DHT22;9939;49.246;9.106;2023-05-10T13:58:52;21.10;99.90
19586;DHT22;9939;49.246;9.106;2023-05-10T14:01:19;21.40;99.90
19586;DHT22;9939;49.246;9.106;2023-05-10T14:03:46;21.30;99.90
19586;DHT22;9939;49.246;9.106;2023-05-10T14:06:13;21.80;99.90
19586;DHT22;9939;49.246;9.106;2023-05-10T14:08:40;21.80;99.90
19586;DHT22;9939;49.246;9.106;2023-05-10T14:11:07;22.30;99.90
19586;DHT22;9939;49.246;9.106;2023-05-10T14:13:34;22.20;99.90
19586;DHT22;9939;49.246;9.106;2023-05-10T14:16:02;22.40;99.90
19586;DHT22;9939;49.246;9.106;2023-05-10T14:18:29;22.10;99.90
19586;DHT22;9939;49.246;9.106;2023-05-10T14:20:56;22.30;99.90
19586;DHT22;9939;49.246;9.106;2023-05-10T14:23:22;22.30;99.90
19586;DHT22;9939;49.246;9.106;2023-05-10T14:25:52;22.40;99.90
19586;DHT22;9939;49.246;9.106;2023-05-10T14:28:19;22.10;99.90
19586;DHT22;9939;49.246;9.106;2023-05-10T14:30:47;21.60;99.90
19586;DHT22;9939;49.246;9.106;2023-05-10T14:33:14;21.70;99.90
19586;DHT22;9939;49.246;9.106;2023-05-10T14:35:41;21.90;99.90
19586;DHT22;9939;49.246;9.106;2023-05-10T14:38:08;21.70;99.90
19586;DHT22;9939;49.246;9.106;2023-05-10T14:40:35;21.20;99.90
19586;DHT22;9939;49.246;9.106;2023-05-10T14:43:02;20.90;99.90
19586;DHT22;9939;49.246;9.106;2023-05-10T14:45:29;20.70;99.90
19586;DHT22;9939;49.246;9.106;2023-05-10T14:47:57;20.50;99.90
19586;DHT22;9939;49.246;9.106;2023-05-10T14:50:24;20.30;99.90
19586;DHT22;9939;49.246;9.106;2023-05-10T14:53:02;19.90;99.90
19586;DHT22;9939;49.246;9.106;2023-05-10T14:55:29;19.70;99.90
19586;DHT22;9939;49.246;9.106;2023-05-10T14:57:56;19.50;99.90
19586;DHT22;9939;49.246;9.106;2023-05-10T15:00:25;19.60;99.90
19586;DHT22;9939;49.246;9.106;2023-05-10T15:02:52;19.40;99.90
19586;DHT22;9939;49.246;9.106;2023-05-10T15:05:19;19.60;99.90
19586;DHT22;9939;49.246;9.106;2023-05-10T15:07:47;19.80;99.90
19586;DHT22;9939;49.246;9.106;2023-05-10T15:10:14;20.10;99.90
19586;DHT22;9939;49.246;9.106;2023-05-10T15:12:41;20.00;99.90
19586;DHT22;9939;49.246;9.106;2023-05-10T15:15:08;20.20;99.90
19586;DHT22;9939;49.246;9.106;2023-05-10T15:17:35;20.80;99.90
19586;DHT22;9939;49.246;9.106;2023-05-10T15:20:02;21.10;99.90
19586;DHT22;9939;49.246;9.106;2023-05-10T15:22:30;21.70;99.90
19586;DHT22;9939;49.246;9.106;2023-05-10T15:25:00;22.20;99.90
19586;DHT22;9939;49.246;9.106;2023-05-10T15:27:27;22.50;99.90
19586;DHT22;9939;49.246;9.106;2023-05-10T15:29:54;22.40;99.90
19586;DHT22;9939;49.246;9.106;2023-05-10T15:32:21;22.80;99.90
19586;DHT22;9939;49.246;9.106;2023-05-10T15:34:48;22.00;99.90
19586;DHT22;9939;49.246;9.106;2023-05-10T15:37:15;21.70;99.90
19586;DHT22;9939;49.246;9.106;2023-05-10T15:39:42;21.70;99.90
19586;DHT22;9939;49.246;9.106;2023-05-10T15:42:09;21.40;99.90
19586;DHT22;9939;49.246;9.106;2023-05-10T15:44:36;21.30;99.90
19586;DHT22;9939;49.246;9.106;2023-05-10T15:47:05;21.30;99.90
19586;DHT22;9939;49.246;9.106;2023-05-10T15:49:32;21.30;99.90
19586;DHT22;9939;49.246;9.106;2023-05-10T15:51:59;21.20;99.90
19586;DHT22;9939;49.246;9.106;2023-05-10T15:54:26;21.20;99.90
19586;DHT22;9939;49.246;9.106;2023-05-10T15:56:53;20.70;99.90
19586;DHT22;9939;49.246;9.106;2023-05-10T15:59:20;20.30;99.90
19586;DHT22;9939;49.246;9.106;2023-05-10T16:01:47;20.40;99.90
19586;DHT22;9939;49.246;9.106;2023-05-10T16:04:15;20.60;99.90
19586;DHT22;9939;49.246;9.106;2023-05-10T16:06:42;20.50;99.90
19586;DHT22;9939;49.246;9.106;2023-05-10T16:09:09;20.50;99.90
19586;DHT22;9939;49.246;9.106;2023-05-10T16:11:36;20.70;99.90
19586;DHT22;9939;49.246;9.106;2023-05-10T16:14:03;20.50;99.90
19586;DHT22;9939;49.246;9.106;2023-05-10T16:16:32;20.50;99.90
19586;DHT22;9939;49.246;9.106;2023-05-10T16:19:00;20.50;99.90
19586;DHT22;9939;49.246;9.106;2023-05-10T16:21:29;20.40;99.90
19586;DHT22;9939;49.246;9.106;2023-05-10T16:24:01;20.40;99.90